sensor_id;sensor_type;location;lat;lon;timestamp;P1;durP1;ratioP1;P2;durP2;ratioP2
76953;SDS011;65893;51.698;-0.292;2023-03-11T00:00:12;11.32;;;4.03;;
76953;SDS011;65893;51.698;-0.292;2023-03-11T00:02:41;9.23;;;3.60;;
76953;SDS011;65893;51.698;-0.292;2023-03-11T00:05:07;8.73;;;3.45;;
76953;SDS011;65893;51.698;-0.292;2023-03-11T00:07:33;9.80;;;3.15;;
76953;SDS011;65893;51.698;-0.292;2023-03-11T00:10:01;9.07;;;3.20;;
76953;SDS011;65893;51.698;-0.292;2023-03-11T00:14:53;9.07;;;3.65;;
76953;SDS011;65893;51.698;-0.292;2023-03-11T00:19:45;6.90;;;2.38;;
76953;SDS011;65893;51.698;-0.292;2023-03-11T00:22:11;8.80;;;2.88;;
76953;SDS011;65893;51.698;-0.292;2023-03-11T00:27:03;8.82;;;2.15;;
76953;SDS011;65893;51.698;-0.292;2023-03-11T00:31:55;10.40;;;2.83;;
76953;SDS011;65893;51.698;-0.292;2023-03-11T00:34:24;8.25;;;2.90;;
76953;SDS011;65893;51.698;-0.292;2023-03-11T00:36:50;12.27;;;2.75;;
76953;SDS011;65893;51.698;-0.292;2023-03-11T00:41:42;10.95;;;2.38;;
76953;SDS011;65893;51.698;-0.292;2023-03-11T00:46:34;5.68;;;2.33;;
76953;SDS011;65893;51.698;-0.292;2023-03-11T00:51:26;5.20;;;2.15;;
76953;SDS011;65893;51.698;-0.292;2023-03-11T00:53:53;7.07;;;2.38;;
76953;SDS011;65893;51.698;-0.292;2023-03-11T00:58:46;9.02;;;2.53;;
76953;SDS011;65893;51.698;-0.292;2023-03-11T01:01:16;8.75;;;2.33;;
76953;SDS011;65893;51.698;-0.292;2023-03-11T01:03:43;11.05;;;2.53;;
76953;SDS011;65893;51.698;-0.292;2023-03-11T01:06:09;3.88;;;1.90;;
76953;SDS011;65893;51.698;-0.292;2023-03-11T01:08:35;7.93;;;2.00;;
76953;SDS011;65893;51.698;-0.292;2023-03-11T01:13:27;5.93;;;2.17;;
76953;SDS011;65893;51.698;-0.292;2023-03-11T01:15:54;7.32;;;1.98;;
76953;SDS011;65893;51.698;-0.292;2023-03-11T01:18:20;6.18;;;1.90;;
76953;SDS011;65893;51.698;-0.292;2023-03-11T01:20:47;3.95;;;1.42;;
76953;SDS011;65893;51.698;-0.292;2023-03-11T01:23:16;7.90;;;2.28;;
76953;SDS011;65893;51.698;-0.292;2023-03-11T01:25:43;7.60;;;1.88;;
76953;SDS011;65893;51.698;-0.292;2023-03-11T01:30:37;9.20;;;1.33;;
76953;SDS011;65893;51.698;-0.292;2023-03-11T01:33:04;11.00;;;1.80;;
76953;SDS011;65893;51.698;-0.292;2023-03-11T01:35:30;5.25;;;1.70;;
76953;SDS011;65893;51.698;-0.292;2023-03-11T01:37:59;5.93;;;1.92;;
76953;SDS011;65893;51.698;-0.292;2023-03-11T01:42:52;6.43;;;1.73;;
76953;SDS011;65893;51.698;-0.292;2023-03-11T01:45:41;6.80;;;1.80;;
76953;SDS011;65893;51.698;-0.292;2023-03-11T01:48:06;7.68;;;1.90;;
76953;SDS011;65893;51.698;-0.292;2023-03-11T01:50:37;7.78;;;1.90;;
76953;SDS011;65893;51.698;-0.292;2023-03-11T01:53:04;5.57;;;1.77;;
76953;SDS011;65893;51.698;-0.292;2023-03-11T01:55:31;7.38;;;1.48;;
76953;SDS011;65893;51.698;-0.292;2023-03-11T01:57:58;6.60;;;1.60;;
76953;SDS011;65893;51.698;-0.292;2023-03-11T02:00:25;4.63;;;1.40;;
76953;SDS011;65893;51.698;-0.292;2023-03-11T02:02:52;5.85;;;2.50;;
76953;SDS011;65893;51.698;-0.292;2023-03-11T02:05:20;9.40;;;2.53;;
76953;SDS011;65893;51.698;-0.292;2023-03-11T02:07:46;7.35;;;1.95;;
76953;SDS011;65893;51.698;-0.292;2023-03-11T02:10:12;5.68;;;1.77;;
76953;SDS011;65893;51.698;-0.292;2023-03-11T02:12:40;5.93;;;1.73;;
76953;SDS011;65893;51.698;-0.292;2023-03-11T02:15:07;6.00;;;2.00;;
76953;SDS011;65893;51.698;-0.292;2023-03-11T02:17:35;6.47;;;1.88;;
76953;SDS011;65893;51.698;-0.292;2023-03-11T02:22:47;6.82;;;1.98;;
76953;SDS011;65893;51.698;-0.292;2023-03-11T02:27:42;9.95;;;1.88;;
76953;SDS011;65893;51.698;-0.292;2023-03-11T02:30:11;5.93;;;2.35;;
76953;SDS011;65893;51.698;-0.292;2023-03-11T02:32:38;7.18;;;2.35;;
76953;SDS011;65893;51.698;-0.292;2023-03-11T02:35:05;5.78;;;2.17;;
76953;SDS011;65893;51.698;-0.292;2023-03-11T02:37:31;6.05;;;2.03;;
76953;SDS011;65893;51.698;-0.292;2023-03-11T02:42:43;8.73;;;2.40;;
76953;SDS011;65893;51.698;-0.292;2023-03-11T02:45:10;8.45;;;3.10;;
76953;SDS011;65893;51.698;-0.292;2023-03-11T02:47:37;11.63;;;3.67;;
76953;SDS011;65893;51.698;-0.292;2023-03-11T02:50:04;10.13;;;2.75;;
76953;SDS011;65893;51.698;-0.292;2023-03-11T02:52:31;10.13;;;3.35;;
76953;SDS011;65893;51.698;-0.292;2023-03-11T02:54:58;9.20;;;2.55;;
76953;SDS011;65893;51.698;-0.292;2023-03-11T02:57:24;7.45;;;2.25;;
76953;SDS011;65893;51.698;-0.292;2023-03-11T02:59:50;8.40;;;2.40;;
76953;SDS011;65893;51.698;-0.292;2023-03-11T03:02:16;8.35;;;2.70;;
76953;SDS011;65893;51.698;-0.292;2023-03-11T03:04:42;9.93;;;2.10;;
76953;SDS011;65893;51.698;-0.292;2023-03-11T03:09:34;6.85;;;2.78;;
76953;SDS011;65893;51.698;-0.292;2023-03-11T03:12:01;6.55;;;2.78;;
76953;SDS011;65893;51.698;-0.292;2023-03-11T03:14:27;8.15;;;3.00;;
76953;SDS011;65893;51.698;-0.292;2023-03-11T03:19:20;7.47;;;2.92;;
76953;SDS011;65893;51.698;-0.292;2023-03-11T03:24:13;7.70;;;2.08;;
76953;SDS011;65893;51.698;-0.292;2023-03-11T03:26:41;7.05;;;1.83;;
76953;SDS011;65893;51.698;-0.292;2023-03-11T03:29:07;10.68;;;2.45;;
76953;SDS011;65893;51.698;-0.292;2023-03-11T03:33:59;9.23;;;2.35;;
76953;SDS011;65893;51.698;-0.292;2023-03-11T03:38:54;5.55;;;2.10;;
76953;SDS011;65893;51.698;-0.292;2023-03-11T03:41:22;7.18;;;1.98;;
76953;SDS011;65893;51.698;-0.292;2023-03-11T03:46:14;6.13;;;2.17;;
76953;SDS011;65893;51.698;-0.292;2023-03-11T03:48:41;18.13;;;2.40;;
76953;SDS011;65893;51.698;-0.292;2023-03-11T03:51:08;7.63;;;2.38;;
76953;SDS011;65893;51.698;-0.292;2023-03-11T03:53:35;7.57;;;3.50;;
76953;SDS011;65893;51.698;-0.292;2023-03-11T03:56:02;13.50;;;4.82;;
76953;SDS011;65893;51.698;-0.292;2023-03-11T03:58:28;9.82;;;3.90;;
76953;SDS011;65893;51.698;-0.292;2023-03-11T04:00:55;12.65;;;4.32;;
76953;SDS011;65893;51.698;-0.292;2023-03-11T04:03:21;12.07;;;3.72;;
76953;SDS011;65893;51.698;-0.292;2023-03-11T04:05:47;14.15;;;3.75;;
76953;SDS011;65893;51.698;-0.292;2023-03-11T04:08:13;12.07;;;3.83;;
76953;SDS011;65893;51.698;-0.292;2023-03-11T04:13:05;13.45;;;3.92;;
76953;SDS011;65893;51.698;-0.292;2023-03-11T04:15:32;8.65;;;3.35;;
76953;SDS011;65893;51.698;-0.292;2023-03-11T04:17:59;8.20;;;2.95;;
76953;SDS011;65893;51.698;-0.292;2023-03-11T04:22:53;7.80;;;3.15;;
76953;SDS011;65893;51.698;-0.292;2023-03-11T04:25:19;8.38;;;3.78;;
76953;SDS011;65893;51.698;-0.292;2023-03-11T04:27:46;9.00;;;3.22;;
76953;SDS011;65893;51.698;-0.292;2023-03-11T04:30:17;10.68;;;3.42;;
76953;SDS011;65893;51.698;-0.292;2023-03-11T04:32:55;8.65;;;3.15;;
76953;SDS011;65893;51.698;-0.292;2023-03-11T04:35:21;12.63;;;4.10;;
76953;SDS011;65893;51.698;-0.292;2023-03-11T04:37:47;16.65;;;4.20;;
76953;SDS011;65893;51.698;-0.292;2023-03-11T04:42:40;8.95;;;4.15;;
76953;SDS011;65893;51.698;-0.292;2023-03-11T04:45:07;11.20;;;3.75;;
76953;SDS011;65893;51.698;-0.292;2023-03-11T04:47:35;8.25;;;3.55;;
76953;SDS011;65893;51.698;-0.292;2023-03-11T04:50:03;11.48;;;3.28;;
76953;SDS011;65893;51.698;-0.292;2023-03-11T04:52:30;14.25;;;4.40;;
76953;SDS011;65893;51.698;-0.292;2023-03-11T04:57:21;10.07;;;3.45;;
76953;SDS011;65893;51.698;-0.292;2023-03-11T05:02:13;10.48;;;3.88;;
76953;SDS011;65893;51.698;-0.292;2023-03-11T05:07:09;7.07;;;2.50;;
76953;SDS011;65893;51.698;-0.292;2023-03-11T05:09:35;8.35;;;4.10;;
76953;SDS011;65893;51.698;-0.292;2023-03-11T05:12:04;10.73;;;3.95;;
76953;SDS011;65893;51.698;-0.292;2023-03-11T05:14:32;10.57;;;3.40;;
76953;SDS011;65893;51.698;-0.292;2023-03-11T05:16:58;11.23;;;4.28;;
76953;SDS011;65893;51.698;-0.292;2023-03-11T05:19:25;11.18;;;3.58;;
76953;SDS011;65893;51.698;-0.292;2023-03-11T05:21:59;9.38;;;3.53;;
76953;SDS011;65893;51.698;-0.292;2023-03-11T05:24:25;8.82;;;3.63;;
76953;SDS011;65893;51.698;-0.292;2023-03-11T05:26:52;6.55;;;2.88;;
76953;SDS011;65893;51.698;-0.292;2023-03-11T05:29:18;10.93;;;3.22;;
76953;SDS011;65893;51.698;-0.292;2023-03-11T05:31:45;9.50;;;3.47;;
76953;SDS011;65893;51.698;-0.292;2023-03-11T05:36:40;11.00;;;4.10;;
76953;SDS011;65893;51.698;-0.292;2023-03-11T05:41:35;7.38;;;2.85;;
76953;SDS011;65893;51.698;-0.292;2023-03-11T05:44:02;9.20;;;3.83;;
76953;SDS011;65893;51.698;-0.292;2023-03-11T05:46:28;22.30;;;4.93;;
76953;SDS011;65893;51.698;-0.292;2023-03-11T05:48:56;16.63;;;3.75;;
76953;SDS011;65893;51.698;-0.292;2023-03-11T05:51:22;8.60;;;2.88;;
76953;SDS011;65893;51.698;-0.292;2023-03-11T05:56:14;16.92;;;4.63;;
76953;SDS011;65893;51.698;-0.292;2023-03-11T05:58:40;12.02;;;3.95;;
76953;SDS011;65893;51.698;-0.292;2023-03-11T06:03:32;14.50;;;3.60;;
76953;SDS011;65893;51.698;-0.292;2023-03-11T06:05:58;7.18;;;3.00;;
76953;SDS011;65893;51.698;-0.292;2023-03-11T06:10:51;12.80;;;4.20;;
76953;SDS011;65893;51.698;-0.292;2023-03-11T06:13:17;14.80;;;3.65;;
76953;SDS011;65893;51.698;-0.292;2023-03-11T06:15:43;9.50;;;3.85;;
76953;SDS011;65893;51.698;-0.292;2023-03-11T06:18:09;10.98;;;3.30;;
76953;SDS011;65893;51.698;-0.292;2023-03-11T06:20:36;10.80;;;3.80;;
76953;SDS011;65893;51.698;-0.292;2023-03-11T06:23:02;10.05;;;3.20;;
76953;SDS011;65893;51.698;-0.292;2023-03-11T06:27:55;8.38;;;3.03;;
76953;SDS011;65893;51.698;-0.292;2023-03-11T06:30:22;7.65;;;3.13;;
76953;SDS011;65893;51.698;-0.292;2023-03-11T06:32:49;13.00;;;3.42;;
76953;SDS011;65893;51.698;-0.292;2023-03-11T06:35:16;12.57;;;4.28;;
76953;SDS011;65893;51.698;-0.292;2023-03-11T06:37:42;9.95;;;4.13;;
76953;SDS011;65893;51.698;-0.292;2023-03-11T06:42:35;13.52;;;5.05;;
76953;SDS011;65893;51.698;-0.292;2023-03-11T06:45:01;14.27;;;4.40;;
76953;SDS011;65893;51.698;-0.292;2023-03-11T06:47:27;10.00;;;4.55;;
76953;SDS011;65893;51.698;-0.292;2023-03-11T06:52:19;16.15;;;4.13;;
76953;SDS011;65893;51.698;-0.292;2023-03-11T06:54:45;9.75;;;3.40;;
76953;SDS011;65893;51.698;-0.292;2023-03-11T06:57:11;8.20;;;3.60;;
76953;SDS011;65893;51.698;-0.292;2023-03-11T06:59:37;10.70;;;3.92;;
76953;SDS011;65893;51.698;-0.292;2023-03-11T07:02:04;9.18;;;3.50;;
76953;SDS011;65893;51.698;-0.292;2023-03-11T07:04:31;9.00;;;3.88;;
76953;SDS011;65893;51.698;-0.292;2023-03-11T07:06:57;8.52;;;3.28;;
76953;SDS011;65893;51.698;-0.292;2023-03-11T07:11:50;10.23;;;3.65;;
76953;SDS011;65893;51.698;-0.292;2023-03-11T07:14:16;9.45;;;3.60;;
76953;SDS011;65893;51.698;-0.292;2023-03-11T07:16:43;11.95;;;4.38;;
76953;SDS011;65893;51.698;-0.292;2023-03-11T07:19:09;8.35;;;3.55;;
76953;SDS011;65893;51.698;-0.292;2023-03-11T07:21:36;8.68;;;3.75;;
76953;SDS011;65893;51.698;-0.292;2023-03-11T07:24:02;13.02;;;4.28;;
76953;SDS011;65893;51.698;-0.292;2023-03-11T07:26:28;10.60;;;4.15;;
76953;SDS011;65893;51.698;-0.292;2023-03-11T07:28:55;13.88;;;4.13;;
76953;SDS011;65893;51.698;-0.292;2023-03-11T07:31:27;10.77;;;5.13;;
76953;SDS011;65893;51.698;-0.292;2023-03-11T07:33:55;11.88;;;4.40;;
76953;SDS011;65893;51.698;-0.292;2023-03-11T07:36:22;7.53;;;3.50;;
76953;SDS011;65893;51.698;-0.292;2023-03-11T07:38:52;9.18;;;3.90;;
76953;SDS011;65893;51.698;-0.292;2023-03-11T07:43:48;13.68;;;4.47;;
76953;SDS011;65893;51.698;-0.292;2023-03-11T07:46:15;12.95;;;3.92;;
76953;SDS011;65893;51.698;-0.292;2023-03-11T07:48:42;10.82;;;3.75;;
76953;SDS011;65893;51.698;-0.292;2023-03-11T07:51:10;9.50;;;4.38;;
76953;SDS011;65893;51.698;-0.292;2023-03-11T07:53:37;12.85;;;4.05;;
76953;SDS011;65893;51.698;-0.292;2023-03-11T07:56:05;19.55;;;4.88;;
76953;SDS011;65893;51.698;-0.292;2023-03-11T07:58:35;14.10;;;3.88;;
76953;SDS011;65893;51.698;-0.292;2023-03-11T08:01:05;10.15;;;3.85;;
76953;SDS011;65893;51.698;-0.292;2023-03-11T08:03:34;9.23;;;3.50;;
76953;SDS011;65893;51.698;-0.292;2023-03-11T08:06:01;11.55;;;4.57;;
76953;SDS011;65893;51.698;-0.292;2023-03-11T08:08:28;11.82;;;4.57;;
76953;SDS011;65893;51.698;-0.292;2023-03-11T08:10:54;7.25;;;3.80;;
76953;SDS011;65893;51.698;-0.292;2023-03-11T08:15:46;8.70;;;3.08;;
76953;SDS011;65893;51.698;-0.292;2023-03-11T08:20:38;9.30;;;3.50;;
76953;SDS011;65893;51.698;-0.292;2023-03-11T08:23:04;10.57;;;3.97;;
76953;SDS011;65893;51.698;-0.292;2023-03-11T08:25:30;9.38;;;4.10;;
76953;SDS011;65893;51.698;-0.292;2023-03-11T08:30:22;6.00;;;2.38;;
76953;SDS011;65893;51.698;-0.292;2023-03-11T08:32:48;9.45;;;3.30;;
76953;SDS011;65893;51.698;-0.292;2023-03-11T08:35:14;8.90;;;3.42;;
76953;SDS011;65893;51.698;-0.292;2023-03-11T08:37:41;9.10;;;2.50;;
76953;SDS011;65893;51.698;-0.292;2023-03-11T08:42:34;7.80;;;3.03;;
76953;SDS011;65893;51.698;-0.292;2023-03-11T08:45:04;5.93;;;2.08;;
76953;SDS011;65893;51.698;-0.292;2023-03-11T08:47:32;7.30;;;2.13;;
76953;SDS011;65893;51.698;-0.292;2023-03-11T08:49:59;5.50;;;2.28;;
76953;SDS011;65893;51.698;-0.292;2023-03-11T08:54:54;8.93;;;2.75;;
76953;SDS011;65893;51.698;-0.292;2023-03-11T08:57:22;9.60;;;2.63;;
76953;SDS011;65893;51.698;-0.292;2023-03-11T09:02:14;7.97;;;2.60;;
76953;SDS011;65893;51.698;-0.292;2023-03-11T09:04:40;6.90;;;3.42;;
76953;SDS011;65893;51.698;-0.292;2023-03-11T09:09:32;8.38;;;2.45;;
76953;SDS011;65893;51.698;-0.292;2023-03-11T09:11:58;9.73;;;3.45;;
76953;SDS011;65893;51.698;-0.292;2023-03-11T09:14:24;12.43;;;3.53;;
76953;SDS011;65893;51.698;-0.292;2023-03-11T09:16:50;6.80;;;2.97;;
76953;SDS011;65893;51.698;-0.292;2023-03-11T09:19:16;7.50;;;2.75;;
76953;SDS011;65893;51.698;-0.292;2023-03-11T09:21:42;9.45;;;2.78;;
76953;SDS011;65893;51.698;-0.292;2023-03-11T09:26:34;11.30;;;3.65;;
76953;SDS011;65893;51.698;-0.292;2023-03-11T09:29:01;9.93;;;3.10;;
76953;SDS011;65893;51.698;-0.292;2023-03-11T09:31:26;7.60;;;3.42;;
76953;SDS011;65893;51.698;-0.292;2023-03-11T09:33:52;11.65;;;3.25;;
76953;SDS011;65893;51.698;-0.292;2023-03-11T09:36:20;11.00;;;2.97;;
76953;SDS011;65893;51.698;-0.292;2023-03-11T09:38:46;7.60;;;2.70;;
76953;SDS011;65893;51.698;-0.292;2023-03-11T09:41:17;8.05;;;3.03;;
76953;SDS011;65893;51.698;-0.292;2023-03-11T09:46:26;17.52;;;3.63;;
76953;SDS011;65893;51.698;-0.292;2023-03-11T09:52:18;13.85;;;3.28;;
76953;SDS011;65893;51.698;-0.292;2023-03-11T09:54:37;8.95;;;2.97;;
76953;SDS011;65893;51.698;-0.292;2023-03-11T09:57:04;8.95;;;3.33;;
76953;SDS011;65893;51.698;-0.292;2023-03-11T09:59:36;8.65;;;2.97;;
76953;SDS011;65893;51.698;-0.292;2023-03-11T10:02:03;24.90;;;4.57;;
76953;SDS011;65893;51.698;-0.292;2023-03-11T10:04:41;12.05;;;2.90;;
76953;SDS011;65893;51.698;-0.292;2023-03-11T10:07:12;9.27;;;2.83;;
76953;SDS011;65893;51.698;-0.292;2023-03-11T10:09:46;12.88;;;3.53;;
76953;SDS011;65893;51.698;-0.292;2023-03-11T10:12:18;13.07;;;3.38;;
76953;SDS011;65893;51.698;-0.292;2023-03-11T10:20:27;10.02;;;2.42;;
76953;SDS011;65893;51.698;-0.292;2023-03-11T10:23:40;9.55;;;2.70;;
76953;SDS011;65893;51.698;-0.292;2023-03-11T10:28:59;6.57;;;2.78;;
76953;SDS011;65893;51.698;-0.292;2023-03-11T10:36:22;4.15;;;1.98;;
76953;SDS011;65893;51.698;-0.292;2023-03-11T10:38:50;5.95;;;2.08;;
76953;SDS011;65893;51.698;-0.292;2023-03-11T10:41:31;10.60;;;1.42;;
76953;SDS011;65893;51.698;-0.292;2023-03-11T10:46:30;3.55;;;1.33;;
76953;SDS011;65893;51.698;-0.292;2023-03-11T10:48:56;3.33;;;1.00;;
76953;SDS011;65893;51.698;-0.292;2023-03-11T10:51:33;4.78;;;0.88;;
76953;SDS011;65893;51.698;-0.292;2023-03-11T10:53:59;4.05;;;0.95;;
76953;SDS011;65893;51.698;-0.292;2023-03-11T10:58:52;3.25;;;1.00;;
76953;SDS011;65893;51.698;-0.292;2023-03-11T11:01:19;6.85;;;1.13;;
76953;SDS011;65893;51.698;-0.292;2023-03-11T11:03:49;4.50;;;1.00;;
76953;SDS011;65893;51.698;-0.292;2023-03-11T11:06:31;2.72;;;0.90;;
76953;SDS011;65893;51.698;-0.292;2023-03-11T11:09:18;9.27;;;1.45;;
76953;SDS011;65893;51.698;-0.292;2023-03-11T11:16:57;3.80;;;1.10;;
76953;SDS011;65893;51.698;-0.292;2023-03-11T11:19:24;2.17;;;0.93;;
76953;SDS011;65893;51.698;-0.292;2023-03-11T11:21:53;5.70;;;1.33;;
76953;SDS011;65893;51.698;-0.292;2023-03-11T11:24:23;5.43;;;1.10;;
76953;SDS011;65893;51.698;-0.292;2023-03-11T11:29:34;4.28;;;1.20;;
76953;SDS011;65893;51.698;-0.292;2023-03-11T11:34:51;4.00;;;1.40;;
76953;SDS011;65893;51.698;-0.292;2023-03-11T11:37:18;6.05;;;1.35;;
76953;SDS011;65893;51.698;-0.292;2023-03-11T11:39:49;4.82;;;1.10;;
76953;SDS011;65893;51.698;-0.292;2023-03-11T11:42:19;3.65;;;1.20;;
76953;SDS011;65893;51.698;-0.292;2023-03-11T11:44:50;6.13;;;1.20;;
76953;SDS011;65893;51.698;-0.292;2023-03-11T11:47:19;5.40;;;1.30;;
76953;SDS011;65893;51.698;-0.292;2023-03-11T11:49:56;4.40;;;1.15;;
76953;SDS011;65893;51.698;-0.292;2023-03-11T11:55:18;4.53;;;1.98;;
76953;SDS011;65893;51.698;-0.292;2023-03-11T11:57:45;6.60;;;1.65;;
76953;SDS011;65893;51.698;-0.292;2023-03-11T12:00:21;12.15;;;1.80;;
76953;SDS011;65893;51.698;-0.292;2023-03-11T12:05:36;3.60;;;1.17;;
76953;SDS011;65893;51.698;-0.292;2023-03-11T12:18:22;3.25;;;1.20;;
76953;SDS011;65893;51.698;-0.292;2023-03-11T12:20:55;4.78;;;1.30;;
76953;SDS011;65893;51.698;-0.292;2023-03-11T12:30:51;5.15;;;1.10;;
76953;SDS011;65893;51.698;-0.292;2023-03-11T12:33:23;8.70;;;1.35;;
76953;SDS011;65893;51.698;-0.292;2023-03-11T12:35:55;5.93;;;1.25;;
76953;SDS011;65893;51.698;-0.292;2023-03-11T12:41:04;2.08;;;0.90;;
76953;SDS011;65893;51.698;-0.292;2023-03-11T12:46:00;5.10;;;1.33;;
76953;SDS011;65893;51.698;-0.292;2023-03-11T12:50:52;4.05;;;1.50;;
76953;SDS011;65893;51.698;-0.292;2023-03-11T12:53:18;4.10;;;1.17;;
76953;SDS011;65893;51.698;-0.292;2023-03-11T13:00:58;3.50;;;1.23;;
76953;SDS011;65893;51.698;-0.292;2023-03-11T13:04:13;5.43;;;1.23;;
76953;SDS011;65893;51.698;-0.292;2023-03-11T13:06:20;5.07;;;1.50;;
76953;SDS011;65893;51.698;-0.292;2023-03-11T13:08:54;5.25;;;1.75;;
76953;SDS011;65893;51.698;-0.292;2023-03-11T13:16:53;5.10;;;1.60;;
76953;SDS011;65893;51.698;-0.292;2023-03-11T13:21:55;4.50;;;1.38;;
76953;SDS011;65893;51.698;-0.292;2023-03-11T13:34:35;8.55;;;1.48;;
76953;SDS011;65893;51.698;-0.292;2023-03-11T13:37:17;9.30;;;1.67;;
76953;SDS011;65893;51.698;-0.292;2023-03-11T13:39:58;3.25;;;1.23;;
76953;SDS011;65893;51.698;-0.292;2023-03-11T13:42:36;5.22;;;1.27;;
76953;SDS011;65893;51.698;-0.292;2023-03-11T13:45:06;4.40;;;1.20;;
76953;SDS011;65893;51.698;-0.292;2023-03-11T13:47:32;7.55;;;1.35;;
76953;SDS011;65893;51.698;-0.292;2023-03-11T13:55:03;4.72;;;1.20;;
76953;SDS011;65893;51.698;-0.292;2023-03-11T13:59:57;5.25;;;1.33;;
76953;SDS011;65893;51.698;-0.292;2023-03-11T14:02:29;6.30;;;1.30;;
76953;SDS011;65893;51.698;-0.292;2023-03-11T14:04:56;4.05;;;1.10;;
76953;SDS011;65893;51.698;-0.292;2023-03-11T14:07:28;8.70;;;1.10;;
76953;SDS011;65893;51.698;-0.292;2023-03-11T14:12:38;7.65;;;1.40;;
76953;SDS011;65893;51.698;-0.292;2023-03-11T14:15:06;3.78;;;1.10;;
76953;SDS011;65893;51.698;-0.292;2023-03-11T14:17:32;5.80;;;1.00;;
76953;SDS011;65893;51.698;-0.292;2023-03-11T14:22:46;7.90;;;1.58;;
76953;SDS011;65893;51.698;-0.292;2023-03-11T14:25:21;11.13;;;1.50;;
76953;SDS011;65893;51.698;-0.292;2023-03-11T14:27:55;3.30;;;1.13;;
76953;SDS011;65893;51.698;-0.292;2023-03-11T14:30:23;8.02;;;1.23;;
76953;SDS011;65893;51.698;-0.292;2023-03-11T14:33:00;3.95;;;0.82;;
76953;SDS011;65893;51.698;-0.292;2023-03-11T14:35:28;4.30;;;1.30;;
76953;SDS011;65893;51.698;-0.292;2023-03-11T14:37:55;3.92;;;1.23;;
76953;SDS011;65893;51.698;-0.292;2023-03-11T14:42:51;2.92;;;0.80;;
76953;SDS011;65893;51.698;-0.292;2023-03-11T14:45:20;9.15;;;1.30;;
76953;SDS011;65893;51.698;-0.292;2023-03-11T14:50:32;5.93;;;1.10;;
76953;SDS011;65893;51.698;-0.292;2023-03-11T14:56:19;4.70;;;1.00;;
76953;SDS011;65893;51.698;-0.292;2023-03-11T14:59:04;3.70;;;0.82;;
76953;SDS011;65893;51.698;-0.292;2023-03-11T15:01:36;2.22;;;0.82;;
76953;SDS011;65893;51.698;-0.292;2023-03-11T15:04:12;3.47;;;0.73;;
76953;SDS011;65893;51.698;-0.292;2023-03-11T15:09:13;3.75;;;1.00;;
76953;SDS011;65893;51.698;-0.292;2023-03-11T15:11:48;3.83;;;0.98;;
76953;SDS011;65893;51.698;-0.292;2023-03-11T15:14:33;4.00;;;0.95;;
76953;SDS011;65893;51.698;-0.292;2023-03-11T15:17:15;6.43;;;1.23;;
76953;SDS011;65893;51.698;-0.292;2023-03-11T15:19:41;3.47;;;0.98;;
76953;SDS011;65893;51.698;-0.292;2023-03-11T15:24:48;5.20;;;1.42;;
76953;SDS011;65893;51.698;-0.292;2023-03-11T15:27:25;6.38;;;1.17;;
76953;SDS011;65893;51.698;-0.292;2023-03-11T15:29:53;3.13;;;1.00;;
76953;SDS011;65893;51.698;-0.292;2023-03-11T15:35:02;4.95;;;1.27;;
76953;SDS011;65893;51.698;-0.292;2023-03-11T15:37:31;6.72;;;1.25;;
76953;SDS011;65893;51.698;-0.292;2023-03-11T15:39:57;3.42;;;0.80;;
76953;SDS011;65893;51.698;-0.292;2023-03-11T15:42:35;6.38;;;1.00;;
76953;SDS011;65893;51.698;-0.292;2023-03-11T15:47:34;6.70;;;0.85;;
76953;SDS011;65893;51.698;-0.292;2023-03-11T15:52:43;13.32;;;1.52;;
76953;SDS011;65893;51.698;-0.292;2023-03-11T15:55:09;8.32;;;1.40;;
76953;SDS011;65893;51.698;-0.292;2023-03-11T15:57:36;3.58;;;0.82;;
76953;SDS011;65893;51.698;-0.292;2023-03-11T16:00:17;6.97;;;1.40;;
76953;SDS011;65893;51.698;-0.292;2023-03-11T16:02:45;7.72;;;1.08;;
76953;SDS011;65893;51.698;-0.292;2023-03-11T16:05:12;9.20;;;1.10;;
76953;SDS011;65893;51.698;-0.292;2023-03-11T16:07:38;4.53;;;1.17;;
76953;SDS011;65893;51.698;-0.292;2023-03-11T16:10:05;2.47;;;0.73;;
76953;SDS011;65893;51.698;-0.292;2023-03-11T16:12:31;3.60;;;1.05;;
76953;SDS011;65893;51.698;-0.292;2023-03-11T16:14:57;4.18;;;1.05;;
76953;SDS011;65893;51.698;-0.292;2023-03-11T16:17:23;5.75;;;1.05;;
76953;SDS011;65893;51.698;-0.292;2023-03-11T16:19:50;6.95;;;1.73;;
76953;SDS011;65893;51.698;-0.292;2023-03-11T16:22:20;6.47;;;1.30;;
76953;SDS011;65893;51.698;-0.292;2023-03-11T16:24:48;7.53;;;1.50;;
76953;SDS011;65893;51.698;-0.292;2023-03-11T16:27:15;6.25;;;1.00;;
76953;SDS011;65893;51.698;-0.292;2023-03-11T16:29:42;3.55;;;1.05;;
76953;SDS011;65893;51.698;-0.292;2023-03-11T16:32:09;4.25;;;1.10;;
76953;SDS011;65893;51.698;-0.292;2023-03-11T16:34:35;4.00;;;0.77;;
76953;SDS011;65893;51.698;-0.292;2023-03-11T16:37:02;4.63;;;0.98;;
76953;SDS011;65893;51.698;-0.292;2023-03-11T16:39:29;5.38;;;1.05;;
76953;SDS011;65893;51.698;-0.292;2023-03-11T16:41:55;2.95;;;1.08;;
76953;SDS011;65893;51.698;-0.292;2023-03-11T16:44:21;6.97;;;1.35;;
76953;SDS011;65893;51.698;-0.292;2023-03-11T16:46:47;4.63;;;0.82;;
76953;SDS011;65893;51.698;-0.292;2023-03-11T16:49:13;6.97;;;1.00;;
76953;SDS011;65893;51.698;-0.292;2023-03-11T16:51:39;5.13;;;1.25;;
76953;SDS011;65893;51.698;-0.292;2023-03-11T16:54:06;5.18;;;1.05;;
76953;SDS011;65893;51.698;-0.292;2023-03-11T16:56:33;4.57;;;1.27;;
76953;SDS011;65893;51.698;-0.292;2023-03-11T16:58:59;7.70;;;1.20;;
76953;SDS011;65893;51.698;-0.292;2023-03-11T17:01:26;7.03;;;1.20;;
76953;SDS011;65893;51.698;-0.292;2023-03-11T17:03:52;4.53;;;0.75;;
76953;SDS011;65893;51.698;-0.292;2023-03-11T17:06:18;1.98;;;0.77;;
76953;SDS011;65893;51.698;-0.292;2023-03-11T17:08:44;5.38;;;1.08;;
76953;SDS011;65893;51.698;-0.292;2023-03-11T17:11:16;5.55;;;1.15;;
76953;SDS011;65893;51.698;-0.292;2023-03-11T17:13:42;2.97;;;1.05;;
76953;SDS011;65893;51.698;-0.292;2023-03-11T17:16:08;7.28;;;1.25;;
76953;SDS011;65893;51.698;-0.292;2023-03-11T17:18:34;7.93;;;1.50;;
76953;SDS011;65893;51.698;-0.292;2023-03-11T17:21:04;4.97;;;0.98;;
76953;SDS011;65893;51.698;-0.292;2023-03-11T17:23:30;5.25;;;1.27;;
76953;SDS011;65893;51.698;-0.292;2023-03-11T17:25:56;3.95;;;1.10;;
76953;SDS011;65893;51.698;-0.292;2023-03-11T17:28:22;5.05;;;0.95;;
76953;SDS011;65893;51.698;-0.292;2023-03-11T17:30:48;3.78;;;0.93;;
76953;SDS011;65893;51.698;-0.292;2023-03-11T17:33:14;2.53;;;0.68;;
76953;SDS011;65893;51.698;-0.292;2023-03-11T17:35:41;4.38;;;1.00;;
76953;SDS011;65893;51.698;-0.292;2023-03-11T17:38:07;4.28;;;0.90;;
76953;SDS011;65893;51.698;-0.292;2023-03-11T17:40:34;4.63;;;1.38;;
76953;SDS011;65893;51.698;-0.292;2023-03-11T17:43:00;4.55;;;1.33;;
76953;SDS011;65893;51.698;-0.292;2023-03-11T17:45:26;3.75;;;1.10;;
76953;SDS011;65893;51.698;-0.292;2023-03-11T17:47:52;3.55;;;1.23;;
76953;SDS011;65893;51.698;-0.292;2023-03-11T17:50:20;5.30;;;1.70;;
76953;SDS011;65893;51.698;-0.292;2023-03-11T17:52:47;4.93;;;1.10;;
76953;SDS011;65893;51.698;-0.292;2023-03-11T17:55:14;5.05;;;1.33;;
76953;SDS011;65893;51.698;-0.292;2023-03-11T17:57:40;3.70;;;1.40;;
76953;SDS011;65893;51.698;-0.292;2023-03-11T18:00:06;7.20;;;1.13;;
76953;SDS011;65893;51.698;-0.292;2023-03-11T18:02:38;2.97;;;0.95;;
76953;SDS011;65893;51.698;-0.292;2023-03-11T18:05:04;4.20;;;1.23;;
76953;SDS011;65893;51.698;-0.292;2023-03-11T18:07:30;5.20;;;1.70;;
76953;SDS011;65893;51.698;-0.292;2023-03-11T18:09:57;5.38;;;1.27;;
76953;SDS011;65893;51.698;-0.292;2023-03-11T18:12:25;4.05;;;1.25;;
76953;SDS011;65893;51.698;-0.292;2023-03-11T18:14:57;3.45;;;1.08;;
76953;SDS011;65893;51.698;-0.292;2023-03-11T18:19:57;2.42;;;1.25;;
76953;SDS011;65893;51.698;-0.292;2023-03-11T18:22:24;4.80;;;1.40;;
76953;SDS011;65893;51.698;-0.292;2023-03-11T18:24:50;6.70;;;1.50;;
76953;SDS011;65893;51.698;-0.292;2023-03-11T18:27:17;4.78;;;1.35;;
76953;SDS011;65893;51.698;-0.292;2023-03-11T18:29:44;4.18;;;1.55;;